createdAt,value
2023-05-11T00:00:49.166Z,101450.00
2023-05-11T00:03:15.976Z,101447.00
2023-05-11T00:05:42.633Z,101455.00
2023-05-11T00:08:09.329Z,101444.00
2023-05-11T00:10:35.974Z,101447.00
2023-05-11T00:13:02.668Z,101447.00
2023-05-11T00:15:29.470Z,101452.00
2023-05-11T00:17:56.139Z,101446.00
2023-05-11T00:20:23.870Z,101448.00
2023-05-11T00:22:50.597Z,101449.00
2023-05-11T00:25:17.221Z,101445.00
2023-05-11T00:27:46.160Z,101442.00
2023-05-11T00:30:14.958Z,101436.00
2023-05-11T00:32:42.546Z,101444.00
2023-05-11T00:35:13.106Z,101446.00
2023-05-11T00:37:40.153Z,101440.00
2023-05-11T00:40:07.612Z,101439.00
2023-05-11T00:42:34.768Z,101434.00
2023-05-11T00:45:01.747Z,101434.00
2023-05-11T00:47:28.550Z,101432.00
2023-05-11T00:49:55.396Z,101442.00
2023-05-11T00:52:22.528Z,101429.00
2023-05-11T00:54:49.293Z,101437.00
2023-05-11T00:57:17.009Z,101440.00
2023-05-11T00:59:43.587Z,101440.00
2023-05-11T01:02:10.522Z,101429.00
2023-05-11T01:04:37.570Z,101429.00
2023-05-11T01:07:18.145Z,101429.00
2023-05-11T01:10:32.334Z,101429.00
2023-05-11T01:13:10.798Z,101433.00
2023-05-11T01:15:53.868Z,101435.00
2023-05-11T01:18:28.318Z,101433.00
2023-05-11T01:21:01.114Z,101426.00
2023-05-11T01:23:55.831Z,101425.00
2023-05-11T01:26:49.433Z,101427.00
2023-05-11T01:29:19.031Z,101432.00
2023-05-11T01:31:48.566Z,101431.00
2023-05-11T01:34:22.574Z,101435.00
2023-05-11T01:37:04.531Z,101437.00
2023-05-11T01:39:37.426Z,101430.00
2023-05-11T01:42:10.637Z,101426.00
2023-05-11T01:44:42.382Z,101433.00
2023-05-11T01:47:11.956Z,101433.00
2023-05-11T01:49:40.182Z,101427.00
2023-05-11T01:52:08.405Z,101433.00
2023-05-11T01:54:36.446Z,101430.00
2023-05-11T01:57:04.439Z,101433.00
2023-05-11T01:59:32.801Z,101434.00
2023-05-11T02:02:01.442Z,101441.00
2023-05-11T02:04:29.600Z,101439.00
2023-05-11T02:06:59.072Z,101440.00
2023-05-11T02:09:26.731Z,101449.00
2023-05-11T02:11:54.818Z,101448.00
2023-05-11T02:14:23.076Z,101444.00
2023-05-11T02:16:50.480Z,101450.00
2023-05-11T02:19:18.381Z,101447.00
2023-05-11T02:21:45.802Z,101454.00
2023-05-11T02:24:12.778Z,101459.00
2023-05-11T02:26:39.481Z,101451.00
2023-05-11T02:29:06.174Z,101460.00
2023-05-11T02:31:39.462Z,101458.00
2023-05-11T02:34:20.846Z,101455.00
2023-05-11T02:36:54.304Z,101466.00
2023-05-11T02:39:22.085Z,101466.00
2023-05-11T02:41:56.424Z,101458.00
2023-05-11T02:44:27.469Z,101465.00
2023-05-11T02:46:56.021Z,101462.00
2023-05-11T02:49:25.438Z,101459.00
2023-05-11T02:51:54.947Z,101466.00
2023-05-11T02:54:23.889Z,101469.00
2023-05-11T02:56:51.562Z,101462.00
2023-05-11T02:59:18.409Z,101463.00
2023-05-11T03:01:45.444Z,101473.00
2023-05-11T03:04:12.524Z,101463.00
2023-05-11T03:06:39.303Z,101456.00
2023-05-11T03:09:08.502Z,101462.00
2023-05-11T03:11:37.505Z,101467.00
2023-05-11T03:14:04.241Z,101457.00
2023-05-11T03:16:32.147Z,101460.00
2023-05-11T03:19:01.870Z,101458.00
2023-05-11T03:21:29.093Z,101459.00
2023-05-11T03:23:57.335Z,101459.00
2023-05-11T03:26:28.592Z,101454.00
2023-05-11T03:28:57.043Z,101461.00
2023-05-11T03:31:23.757Z,101459.00
2023-05-11T03:33:50.543Z,101457.00
2023-05-11T03:36:17.973Z,101452.00
2023-05-11T03:38:47.532Z,101455.00
2023-05-11T03:41:19.162Z,101453.00
2023-05-11T03:43:49.342Z,101452.00
2023-05-11T03:46:20.197Z,101447.00
2023-05-11T03:48:48.001Z,101446.00
2023-05-11T03:51:15.002Z,101453.00
2023-05-11T03:53:41.934Z,101443.00
2023-05-11T03:56:08.787Z,101448.00
2023-05-11T03:58:40.540Z,101448.00
2023-05-11T04:01:09.065Z,101449.00
2023-05-11T04:03:56.550Z,101450.00
2023-05-11T04:06:23.295Z,101444.00
2023-05-11T04:08:50.514Z,101447.00
2023-05-11T04:11:17.167Z,101450.00
2023-05-11T04:13:43.768Z,101443.00
2023-05-11T04:16:10.597Z,101446.00
2023-05-11T04:18:37.231Z,101452.00
2023-05-11T04:21:04.103Z,101450.00
2023-05-11T04:23:30.722Z,101448.00
2023-05-11T04:25:57.925Z,101446.00
2023-05-11T04:28:27.666Z,101451.00
2023-05-11T04:30:55.461Z,101450.00
2023-05-11T04:33:22.644Z,101451.00
2023-05-11T04:35:53.868Z,101453.00
2023-05-11T04:38:22.426Z,101458.00
2023-05-11T04:40:50.631Z,101456.00
2023-05-11T04:43:18.338Z,101454.00
2023-05-11T04:45:51.354Z,101448.00
2023-05-11T04:48:20.498Z,101461.00
2023-05-11T04:50:47.771Z,101466.00
2023-05-11T04:53:14.742Z,101464.00
2023-05-11T04:55:41.349Z,101468.00
2023-05-11T04:58:08.056Z,101474.00
2023-05-11T05:00:36.581Z,101474.00
2023-05-11T05:03:03.721Z,101472.00
2023-05-11T05:05:30.667Z,101473.00
2023-05-11T05:07:57.466Z,101478.00
2023-05-11T05:10:24.125Z,101476.00
2023-05-11T05:12:50.779Z,101472.00
2023-05-11T05:15:17.488Z,101480.00
2023-05-11T05:17:44.235Z,101481.00
2023-05-11T05:20:11.275Z,101480.00
2023-05-11T05:22:38.036Z,101477.00
2023-05-11T05:25:05.057Z,101483.00
2023-05-11T05:27:34.769Z,101491.00
2023-05-11T05:30:01.807Z,101494.00
2023-05-11T05:32:28.417Z,101495.00
2023-05-11T05:34:55.192Z,101503.00
2023-05-11T05:37:21.886Z,101494.00
2023-05-11T05:39:48.639Z,101497.00
2023-05-11T05:42:15.439Z,101503.00
2023-05-11T05:44:42.020Z,101498.00
2023-05-11T05:47:08.811Z,101501.00
2023-05-11T05:49:35.386Z,101504.00
2023-05-11T05:52:02.077Z,101510.00
2023-05-11T05:54:28.674Z,101511.00
2023-05-11T05:56:55.495Z,101518.00
2023-05-11T05:59:24.266Z,101504.00
2023-05-11T06:01:51.613Z,101512.00
2023-05-11T06:04:18.915Z,101517.00
2023-05-11T06:06:46.539Z,101516.00
2023-05-11T06:09:13.805Z,101523.00
2023-05-11T06:11:41.109Z,101521.00
2023-05-11T06:14:07.709Z,101530.00
2023-05-11T06:16:34.351Z,101527.00
2023-05-11T06:19:01.173Z,101527.00
2023-05-11T06:21:27.982Z,101529.00
2023-05-11T06:23:54.598Z,101527.00
2023-05-11T06:26:25.025Z,101533.00
2023-05-11T06:28:52.732Z,101537.00
2023-05-11T06:31:19.642Z,101537.00
2023-05-11T06:33:46.378Z,101543.00
2023-05-11T06:36:12.974Z,101546.00
2023-05-11T06:38:39.519Z,101542.00
2023-05-11T06:41:06.692Z,101544.00
2023-05-11T06:43:33.699Z,101545.00
2023-05-11T06:46:00.358Z,101548.00
2023-05-11T06:48:29.963Z,101557.00
2023-05-11T06:50:57.350Z,101552.00
2023-05-11T06:53:24.076Z,101554.00
2023-05-11T06:55:50.779Z,101554.00
2023-05-11T06:58:20.631Z,101555.00
2023-05-11T07:00:47.528Z,101555.00
2023-05-11T07:03:14.260Z,101555.00
2023-05-11T07:05:41.098Z,101555.00
2023-05-11T07:08:07.766Z,101564.00
2023-05-11T07:10:34.514Z,101557.00
2023-05-11T07:13:01.153Z,101562.00
2023-05-11T07:15:27.836Z,101566.00
2023-05-11T07:17:54.680Z,101575.00
2023-05-11T07:20:21.516Z,101568.00
2023-05-11T07:22:48.354Z,101566.00
2023-05-11T07:25:15.038Z,101573.00
2023-05-11T07:27:41.717Z,101576.00
2023-05-11T07:30:08.786Z,101582.00
2023-05-11T07:32:35.564Z,101575.00
2023-05-11T07:35:02.177Z,101582.00
2023-05-11T07:37:28.914Z,101577.00
2023-05-11T07:39:55.732Z,101578.00
2023-05-11T07:42:22.290Z,101578.00
2023-05-11T07:44:48.923Z,101582.00
2023-05-11T07:47:16.364Z,101582.00
2023-05-11T07:49:44.202Z,101582.00
2023-05-11T07:52:11.789Z,101582.00
2023-05-11T07:54:40.315Z,101589.00
2023-05-11T07:57:07.212Z,101579.00
2023-05-11T07:59:33.994Z,101579.00
2023-05-11T08:02:00.713Z,101579.00
2023-05-11T08:04:28.017Z,101577.00
2023-05-11T08:06:54.722Z,101580.00
2023-05-11T08:09:22.579Z,101583.00
2023-05-11T08:11:49.997Z,101583.00
2023-05-11T08:14:17.352Z,101586.00
2023-05-11T08:16:44.508Z,101584.00
2023-05-11T08:19:13.093Z,101592.00
2023-05-11T08:21:40.341Z,101590.00
2023-05-11T08:24:07.312Z,101585.00
2023-05-11T08:26:34.230Z,101589.00
2023-05-11T08:29:00.939Z,101589.00
2023-05-11T08:31:27.673Z,101587.00
2023-05-11T08:33:54.448Z,101589.00
2023-05-11T08:36:21.527Z,101587.00
2023-05-11T08:38:48.203Z,101596.00
2023-05-11T08:41:14.874Z,101596.00
2023-05-11T08:43:43.614Z,101603.00
2023-05-11T08:46:11.682Z,101601.00
2023-05-11T08:48:38.617Z,101599.00
2023-05-11T08:51:05.683Z,101594.00
2023-05-11T08:53:32.856Z,101592.00
2023-05-11T08:56:01.553Z,101589.00
2023-05-11T08:58:28.995Z,101595.00
2023-05-11T09:00:56.233Z,101598.00
2023-05-11T09:03:23.545Z,101597.00
2023-05-11T09:05:50.973Z,101604.00
2023-05-11T09:08:18.742Z,101598.00
2023-05-11T09:10:45.458Z,101599.00
2023-05-11T09:13:12.338Z,101597.00
2023-05-11T09:15:39.058Z,101602.00
2023-05-11T09:18:06.310Z,101601.00
2023-05-11T09:20:34.203Z,101598.00
2023-05-11T09:23:01.651Z,101604.00
2023-05-11T09:25:33.150Z,101598.00
2023-05-11T09:28:00.372Z,101601.00
2023-05-11T09:30:27.716Z,101604.00
2023-05-11T09:32:59.594Z,101600.00
2023-05-11T09:35:29.950Z,101609.00
2023-05-11T09:38:00.769Z,101599.00
2023-05-11T09:43:01.358Z,101613.00
2023-05-11T09:45:42.273Z,101607.00
2023-05-11T09:48:21.083Z,101605.00
2023-05-11T09:50:58.199Z,101607.00
2023-05-11T09:53:45.964Z,101598.00
2023-05-11T09:56:14.120Z,101602.00
2023-05-11T09:58:50.267Z,101600.00
2023-05-11T10:01:19.307Z,101612.00
2023-05-11T10:04:00.371Z,101607.00
2023-05-11T10:06:58.732Z,101605.00
2023-05-11T10:09:27.357Z,101598.00
2023-05-11T10:11:55.697Z,101602.00
2023-05-11T10:14:22.755Z,101606.00
2023-05-11T10:16:50.146Z,101615.00
2023-05-11T10:19:17.730Z,101603.00
2023-05-11T10:21:45.035Z,101608.00
2023-05-11T10:24:12.142Z,101603.00
2023-05-11T10:26:39.174Z,101607.00
2023-05-11T10:29:06.368Z,101608.00
2023-05-11T10:31:33.604Z,101606.00
2023-05-11T10:34:01.748Z,101607.00
2023-05-11T10:36:29.250Z,101602.00
2023-05-11T10:38:55.931Z,101605.00
2023-05-11T10:41:52.441Z,101618.00
2023-05-11T10:44:35.226Z,101617.00
2023-05-11T10:47:13.901Z,101609.00
2023-05-11T10:49:52.404Z,101620.00
2023-05-11T10:52:38.954Z,101619.00
2023-05-11T10:55:22.521Z,101613.00
2023-05-11T10:58:15.673Z,101615.00
2023-05-11T11:01:20.032Z,101612.00
2023-05-11T11:04:02.126Z,101616.00
2023-05-11T11:06:29.581Z,101615.00
2023-05-11T11:09:01.545Z,101616.00
2023-05-11T11:11:48.041Z,101613.00
2023-05-11T11:14:16.412Z,101607.00
2023-05-11T11:17:15.433Z,101607.00
2023-05-11T11:19:43.477Z,101598.00
2023-05-11T11:22:36.541Z,101613.00
2023-05-11T11:25:10.382Z,101614.00
2023-05-11T11:27:40.011Z,101608.00
2023-05-11T11:30:20.102Z,101613.00
2023-05-11T11:32:52.309Z,101594.00
2023-05-11T11:35:43.692Z,101597.00
2023-05-11T11:38:18.780Z,101603.00
2023-05-11T11:40:51.390Z,101600.00
2023-05-11T11:43:21.651Z,101609.00
2023-05-11T11:45:53.868Z,101604.00
2023-05-11T11:48:37.779Z,101603.00
2023-05-11T11:51:13.941Z,101596.00
2023-05-11T11:53:44.631Z,101593.00
2023-05-11T11:56:14.093Z,101587.00
2023-05-11T11:58:43.419Z,101591.00
2023-05-11T12:01:23.203Z,101590.00
2023-05-11T12:04:19.472Z,101588.00
2023-05-11T12:06:55.408Z,101587.00
2023-05-11T12:09:23.203Z,101585.00
2023-05-11T12:11:50.465Z,101590.00
2023-05-11T12:14:17.271Z,101595.00
2023-05-11T12:16:43.907Z,101594.00
2023-05-11T12:19:10.693Z,101598.00
2023-05-11T12:21:37.352Z,101593.00
2023-05-11T12:24:05.646Z,101596.00
2023-05-11T12:26:33.377Z,101601.00
2023-05-11T12:29:25.946Z,101598.00
2023-05-11T12:31:52.959Z,101608.00
2023-05-11T12:34:22.810Z,101602.00
2023-05-11T12:36:51.150Z,101594.00
2023-05-11T12:39:22.181Z,101604.00
2023-05-11T12:41:50.063Z,101599.00
2023-05-11T12:44:17.894Z,101598.00
2023-05-11T12:46:48.688Z,101598.00
2023-05-11T12:49:26.853Z,101593.00
2023-05-11T12:51:59.637Z,101599.00
2023-05-11T12:54:37.657Z,101601.00
2023-05-11T12:57:06.015Z,101598.00
2023-05-11T12:59:32.579Z,101599.00
2023-05-11T13:02:16.459Z,101596.00
2023-05-11T13:04:44.212Z,101591.00
2023-05-11T13:07:12.407Z,101596.00
2023-05-11T13:09:40.321Z,101595.00
2023-05-11T13:12:11.114Z,101598.00
2023-05-11T13:14:38.766Z,101587.00
2023-05-11T13:17:05.667Z,101597.00
2023-05-11T13:19:33.548Z,101596.00
2023-05-11T13:22:00.880Z,101593.00
2023-05-11T13:24:27.633Z,101591.00
2023-05-11T13:26:55.834Z,101592.00
2023-05-11T13:29:22.541Z,101592.00
2023-05-11T13:31:51.385Z,101591.00
2023-05-11T13:34:19.054Z,101599.00
2023-05-11T13:36:46.739Z,101596.00
2023-05-11T13:39:13.358Z,101593.00
2023-05-11T13:41:40.013Z,101599.00
2023-05-11T13:44:06.660Z,101602.00
2023-05-11T13:46:33.320Z,101599.00
2023-05-11T13:49:00.476Z,101602.00
2023-05-11T13:51:27.709Z,101613.00
2023-05-11T13:53:54.619Z,101618.00
2023-05-11T13:56:22.036Z,101619.00
2023-05-11T13:58:48.967Z,101619.00
2023-05-11T14:01:15.696Z,101620.00
2023-05-11T14:03:42.408Z,101616.00
2023-05-11T14:06:09.315Z,101624.00
2023-05-11T14:08:36.060Z,101623.00
2023-05-11T14:11:02.677Z,101616.00
2023-05-11T14:13:29.323Z,101619.00
2023-05-11T14:15:57.009Z,101627.00
2023-05-11T14:18:24.954Z,101628.00
2023-05-11T14:20:51.941Z,101628.00
2023-05-11T14:23:18.577Z,101622.00
2023-05-11T14:25:45.198Z,101619.00
2023-05-11T14:28:12.297Z,101619.00
2023-05-11T14:30:38.945Z,101624.00
2023-05-11T14:33:05.726Z,101626.00
2023-05-11T14:35:32.564Z,101624.00
2023-05-11T14:37:59.199Z,101622.00
2023-05-11T14:40:25.820Z,101627.00
2023-05-11T14:42:52.463Z,101631.00
2023-05-11T14:45:19.302Z,101631.00
2023-05-11T14:47:46.185Z,101635.00
2023-05-11T14:50:12.910Z,101632.00
2023-05-11T14:52:39.552Z,101631.00
2023-05-11T14:55:06.753Z,101630.00
2023-05-11T14:57:33.392Z,101633.00
2023-05-11T15:00:00.660Z,101628.00
2023-05-11T15:02:28.799Z,101625.00
2023-05-11T15:04:55.655Z,101632.00
2023-05-11T15:07:22.283Z,101634.00
2023-05-11T15:09:49.775Z,101631.00
2023-05-11T15:12:16.525Z,101632.00
2023-05-11T15:14:43.083Z,101638.00
2023-05-11T15:17:09.775Z,101634.00
2023-05-11T15:19:36.415Z,101635.00
2023-05-11T15:22:03.473Z,101634.00
2023-05-11T15:24:30.138Z,101631.00
2023-05-11T15:27:00.256Z,101633.00
2023-05-11T15:29:27.326Z,101636.00
2023-05-11T15:31:54.952Z,101633.00
2023-05-11T15:34:21.866Z,101639.00
2023-05-11T15:36:49.814Z,101634.00
2023-05-11T15:39:17.711Z,101644.00
2023-05-11T15:41:44.419Z,101638.00
2023-05-11T15:44:12.049Z,101642.00
2023-05-11T15:46:38.969Z,101648.00
2023-05-11T15:49:08.812Z,101641.00
2023-05-11T15:51:35.581Z,101645.00
2023-05-11T15:54:02.173Z,101643.00
2023-05-11T15:56:28.837Z,101653.00
2023-05-11T15:58:55.475Z,101638.00
2023-05-11T16:01:22.348Z,101649.00
2023-05-11T16:03:48.981Z,101642.00
2023-05-11T16:06:15.653Z,101651.00
2023-05-11T16:08:42.341Z,101653.00
2023-05-11T16:11:08.963Z,101651.00
2023-05-11T16:13:35.544Z,101657.00
2023-05-11T16:16:02.189Z,101647.00
2023-05-11T16:18:28.974Z,101652.00
2023-05-11T16:20:56.464Z,101646.00
2023-05-11T16:23:25.525Z,101647.00
2023-05-11T16:25:52.654Z,101651.00
2023-05-11T16:28:19.826Z,101655.00
2023-05-11T16:30:46.457Z,101655.00
2023-05-11T16:33:13.296Z,101656.00
2023-05-11T16:35:39.945Z,101656.00
2023-05-11T16:38:06.794Z,101651.00
2023-05-11T16:40:33.449Z,101655.00
2023-05-11T16:43:00.104Z,101653.00
2023-05-11T16:45:26.842Z,101648.00
2023-05-11T16:47:53.584Z,101649.00
2023-05-11T16:50:20.604Z,101654.00
2023-05-11T16:52:48.773Z,101656.00
2023-05-11T16:55:16.145Z,101652.00
2023-05-11T16:57:44.581Z,101650.00
2023-05-11T17:00:12.728Z,101652.00
2023-05-11T17:02:39.752Z,101653.00
2023-05-11T17:05:08.147Z,101658.00
2023-05-11T17:07:34.764Z,101658.00
2023-05-11T17:10:01.751Z,101663.00
2023-05-11T17:12:29.662Z,101665.00
2023-05-11T17:14:57.493Z,101665.00
2023-05-11T17:17:24.643Z,101660.00
2023-05-11T17:19:52.042Z,101661.00
2023-05-11T17:22:19.042Z,101660.00
2023-05-11T17:24:46.996Z,101668.00
2023-05-11T17:27:13.844Z,101662.00
2023-05-11T17:29:43.384Z,101658.00
2023-05-11T17:32:10.193Z,101667.00
2023-05-11T17:34:36.968Z,101665.00
2023-05-11T17:37:03.862Z,101664.00
2023-05-11T17:39:30.910Z,101667.00
2023-05-11T17:41:57.979Z,101666.00
2023-05-11T17:44:24.684Z,101666.00
2023-05-11T17:46:52.124Z,101661.00
2023-05-11T17:49:18.726Z,101670.00
2023-05-11T17:51:47.250Z,101670.00
2023-05-11T17:54:14.274Z,101668.00
2023-05-11T17:56:41.283Z,101675.00
2023-05-11T17:59:08.154Z,101677.00
2023-05-11T18:01:34.855Z,101671.00
2023-05-11T18:04:02.057Z,101674.00
2023-05-11T18:06:29.188Z,101668.00
2023-05-11T18:08:55.924Z,101673.00
2023-05-11T18:11:22.689Z,101678.00
2023-05-11T18:13:49.260Z,101677.00
2023-05-11T18:16:17.975Z,101682.00
2023-05-11T18:18:45.059Z,101681.00
2023-05-11T18:21:11.725Z,101686.00
2023-05-11T18:23:38.582Z,101677.00
2023-05-11T18:26:06.921Z,101676.00
2023-05-11T18:28:33.663Z,101688.00
2023-05-11T18:31:00.502Z,101682.00
2023-05-11T18:33:27.148Z,101690.00
2023-05-11T18:35:53.920Z,101695.00
2023-05-11T18:38:20.593Z,101698.00
2023-05-11T18:40:47.556Z,101700.00
2023-05-11T18:43:14.188Z,101705.00
2023-05-11T18:45:41.247Z,101704.00
2023-05-11T18:48:08.173Z,101704.00
2023-05-11T18:50:34.881Z,101706.00
2023-05-11T18:53:02.194Z,101701.00
2023-05-11T18:55:30.896Z,101698.00
2023-05-11T18:57:58.160Z,101700.00
2023-05-11T19:00:24.876Z,101702.00
2023-05-11T19:02:52.170Z,101702.00
2023-05-11T19:05:19.381Z,101702.00
2023-05-11T19:07:46.169Z,101706.00
2023-05-11T19:10:18.173Z,101703.00
2023-05-11T19:12:45.026Z,101708.00
2023-05-11T19:15:11.795Z,101713.00
2023-05-11T19:17:38.500Z,101711.00
2023-05-11T19:20:06.057Z,101717.00
2023-05-11T19:22:33.736Z,101716.00
2023-05-11T19:25:00.896Z,101723.00
2023-05-11T19:27:27.613Z,101730.00
2023-05-11T19:29:54.259Z,101722.00
2023-05-11T19:32:23.246Z,101731.00
2023-05-11T19:34:50.047Z,101741.00
2023-05-11T19:37:16.642Z,101736.00
2023-05-11T19:39:44.185Z,101743.00
2023-05-11T19:42:11.320Z,101743.00
2023-05-11T19:44:43.360Z,101749.00
2023-05-11T19:47:10.697Z,101752.00
2023-05-11T19:49:37.542Z,101749.00
2023-05-11T19:52:04.354Z,101757.00
2023-05-11T19:54:34.263Z,101766.00
2023-05-11T19:57:01.029Z,101766.00
2023-05-11T19:59:32.717Z,101766.00
2023-05-11T20:02:00.359Z,101759.00
2023-05-11T20:04:30.846Z,101761.00
2023-05-11T20:06:57.870Z,101776.00
2023-05-11T20:09:25.077Z,101771.00
2023-05-11T20:11:51.753Z,101775.00
2023-05-11T20:14:18.408Z,101782.00
2023-05-11T20:16:45.189Z,101785.00
2023-05-11T20:19:11.965Z,101773.00
2023-05-11T20:21:38.645Z,101781.00
2023-05-11T20:24:05.325Z,101776.00
2023-05-11T20:26:31.952Z,101776.00
2023-05-11T20:28:58.600Z,101784.00
2023-05-11T20:31:26.223Z,101790.00
2023-05-11T20:36:22.448Z,101790.00
2023-05-11T20:38:49.487Z,101791.00
2023-05-11T20:41:16.142Z,101786.00
2023-05-11T20:43:42.731Z,101792.00
2023-05-11T20:46:11.503Z,101792.00
2023-05-11T20:48:40.324Z,101786.00
2023-05-11T20:51:07.674Z,101790.00
2023-05-11T20:53:34.539Z,101783.00
2023-05-11T20:56:02.735Z,101786.00
2023-05-11T20:58:30.947Z,101796.00
2023-05-11T21:00:57.986Z,101788.00
2023-05-11T21:03:26.851Z,101789.00
2023-05-11T21:05:53.799Z,101783.00
2023-05-11T21:08:20.484Z,101780.00
2023-05-11T21:10:47.164Z,101778.00
2023-05-11T21:13:13.967Z,101782.00
2023-05-11T21:15:41.331Z,101782.00
2023-05-11T21:18:08.434Z,101785.00
2023-05-11T21:20:35.744Z,101782.00
2023-05-11T21:23:02.655Z,101784.00
2023-05-11T21:25:30.793Z,101785.00
2023-05-11T21:27:57.619Z,101785.00
2023-05-11T21:30:24.294Z,101788.00
2023-05-11T21:32:50.999Z,101782.00
2023-05-11T21:35:18.079Z,101782.00
2023-05-11T21:37:49.456Z,101784.00
2023-05-11T21:40:17.926Z,101788.00
2023-05-11T21:42:45.096Z,101783.00
2023-05-11T21:45:12.351Z,101790.00
2023-05-11T21:47:39.255Z,101784.00
2023-05-11T21:50:07.776Z,101791.00
2023-05-11T21:52:34.449Z,101795.00
2023-05-11T21:55:01.324Z,101796.00
2023-05-11T21:57:28.053Z,101794.00
2023-05-11T21:59:54.713Z,101795.00
2023-05-11T22:02:21.740Z,101800.00
2023-05-11T22:04:48.793Z,101799.00
2023-05-11T22:07:15.574Z,101794.00
2023-05-11T22:09:42.265Z,101802.00
2023-05-11T22:12:09.292Z,101786.00
2023-05-11T22:14:36.402Z,101790.00
2023-05-11T22:17:03.393Z,101786.00
2023-05-11T22:19:30.226Z,101793.00
2023-05-11T22:21:57.089Z,101784.00
2023-05-11T22:24:27.005Z,101798.00
2023-05-11T22:26:54.661Z,101790.00
2023-05-11T22:29:22.025Z,101787.00
2023-05-11T22:31:49.361Z,101788.00
2023-05-11T22:34:16.378Z,101791.00
2023-05-11T22:36:43.187Z,101789.00
2023-05-11T22:39:11.434Z,101792.00
2023-05-11T22:41:38.596Z,101785.00
2023-05-11T22:44:05.688Z,101791.00
2023-05-11T22:46:32.399Z,101796.00
2023-05-11T22:48:59.091Z,101783.00
2023-05-11T22:51:25.778Z,101795.00
2023-05-11T22:53:52.378Z,101790.00
2023-05-11T22:56:19.175Z,101789.00
2023-05-11T22:58:46.024Z,101795.00
2023-05-11T23:01:12.930Z,101789.00
2023-05-11T23:03:40.214Z,101796.00
2023-05-11T23:06:07.149Z,101800.00
2023-05-11T23:08:33.805Z,101795.00
2023-05-11T23:11:00.491Z,101793.00
2023-05-11T23:13:27.639Z,101793.00
2023-05-11T23:15:54.285Z,101780.00
2023-05-11T23:18:21.210Z,101787.00
2023-05-11T23:20:47.909Z,101780.00
2023-05-11T23:23:14.727Z,101782.00
2023-05-11T23:25:41.645Z,101775.00
2023-05-11T23:28:11.650Z,101778.00
2023-05-11T23:30:38.407Z,101777.00
2023-05-11T23:33:05.138Z,101785.00
2023-05-11T23:35:31.847Z,101784.00
2023-05-11T23:37:58.765Z,101784.00
2023-05-11T23:40:28.596Z,101784.00
2023-05-11T23:42:55.349Z,101784.00
2023-05-11T23:45:23.462Z,101783.00
2023-05-11T23:47:50.164Z,101781.00
2023-05-11T23:50:17.131Z,101777.00
2023-05-11T23:52:44.105Z,101784.00
2023-05-11T23:55:11.091Z,101779.00
2023-05-11T23:57:37.905Z,101783.00
